Time;durP1;ratioP1;P1;durP2;ratioP2;P2;SDS_P1;SDS_P2;PMS_P1;PMS_P2;Temp;Humidity;BMP_temperature;BMP_pressure;BME280_temperature;BME280_humidity;BME280_pressure;Samples;Min_cycle;Max_cycle;Signal;HPM_P1;HPM_P2
2021/12/30 00:00:48;;;;;;;32.63;13.60;;;;;;;1.61;90.51;100937.63;5015476;28;20482;-51
2021/12/30 00:03:14;;;;;;;30.20;13.52;;;;;;;1.67;90.32;100936.91;5012735;28;20033;-50
2021/12/30 00:05:40;;;;;;;32.53;13.48;;;;;;;1.73;90.02;100945.91;5013051;28;20567;-49
2021/12/30 00:08:07;;;;;;;29.75;13.43;;;;;;;1.74;90.06;100937.78;5001566;28;20033;-50
2021/12/30 00:10:34;;;;;;;28.77;12.40;;;;;;;1.75;89.81;100938.59;5016348;28;20029;-49
2021/12/30 00:12:59;;;;;;;28.48;11.73;;;;;;;1.77;90.03;100950.63;5007717;28;20063;-49
2021/12/30 00:15:25;;;;;;;30.58;13.48;;;;;;;1.73;89.79;100953.81;5010111;28;20069;-49
2021/12/30 00:17:51;;;;;;;29.67;12.85;;;;;;;1.75;89.51;100950.00;5012271;28;20040;-50
2021/12/30 00:20:17;;;;;;;34.45;13.32;;;;;;;1.73;89.78;100941.44;5012131;28;20042;-49
2021/12/30 00:22:43;;;;;;;31.85;13.43;;;;;;;1.69;89.93;100940.19;5015489;28;20021;-50
2021/12/30 00:25:10;;;;;;;58.75;15.98;;;;;;;1.65;89.93;100931.00;5013071;28;20639;-49
2021/12/30 00:27:36;;;;;;;30.88;13.18;;;;;;;1.63;89.90;100922.44;5011595;28;20051;-49
2021/12/30 00:30:03;;;;;;;34.97;13.90;;;;;;;1.63;90.02;100930.38;5012734;28;20025;-49
2021/12/30 00:32:28;;;;;;;34.90;13.95;;;;;;;1.65;90.14;100933.63;5012179;28;20129;-51
2021/12/30 00:34:54;;;;;;;37.03;14.07;;;;;;;1.70;89.67;100933.06;5012477;28;20059;-49
2021/12/30 00:37:19;;;;;;;34.53;14.38;;;;;;;1.71;89.68;100935.53;5014266;28;20034;-48
2021/12/30 00:39:45;;;;;;;34.08;14.40;;;;;;;1.74;89.64;100934.31;5015190;28;20025;-48
2021/12/30 00:42:10;;;;;;;41.75;14.70;;;;;;;1.69;89.61;100932.25;5015788;28;20101;-51
2021/12/30 00:44:36;;;;;;;89.47;22.63;;;;;;;1.66;89.68;100926.53;5015744;28;20061;-49
2021/12/30 00:47:03;;;;;;;68.50;18.98;;;;;;;1.62;89.85;100930.56;5011965;28;20053;-48
2021/12/30 00:49:29;;;;;;;85.63;22.88;;;;;;;1.60;90.08;100928.06;5012182;28;20029;-48
2021/12/30 00:51:55;;;;;;;101.88;21.83;;;;;;;1.61;90.23;100921.78;5014949;28;20108;-52
2021/12/30 00:54:21;;;;;;;59.33;16.77;;;;;;;1.60;90.12;100930.69;5010461;28;20197;-48
2021/12/30 00:56:46;;;;;;;45.92;16.70;;;;;;;1.56;90.23;100939.19;5014379;28;20030;-49
2021/12/30 00:59:12;;;;;;;37.83;14.70;;;;;;;1.50;91.42;100932.84;5016835;28;20178;-49
2021/12/30 01:01:37;;;;;;;57.75;17.35;;;;;;;1.54;91.25;100933.28;5012011;28;20022;-48
2021/12/30 01:04:03;;;;;;;35.05;14.68;;;;;;;1.50;92.01;100938.94;5008685;28;20056;-50
2021/12/30 01:06:29;;;;;;;41.55;16.48;;;;;;;1.54;91.96;100930.63;5015332;28;20164;-49
2021/12/30 01:08:56;;;;;;;84.18;19.13;;;;;;;1.62;91.89;100939.28;5018316;28;20078;-48
2021/12/30 01:11:23;;;;;;;67.00;17.33;;;;;;;1.66;91.89;100937.09;5017935;28;20048;-48
2021/12/30 01:13:57;;;;;;;38.90;14.65;;;;;;;1.67;91.24;100941.38;5017421;28;20100;-50
2021/12/30 01:16:24;;;;;;;33.20;13.48;;;;;;;1.70;92.38;100946.28;5014855;28;20680;-51
2021/12/30 01:19:14;;;;;;;58.40;17.38;;;;;;;1.74;92.24;100958.91;5015942;28;20037;-49
2021/12/30 01:21:40;;;;;;;53.95;15.32;;;;;;;1.79;92.23;100955.72;5016331;28;20095;-51
2021/12/30 01:24:06;;;;;;;67.10;16.90;;;;;;;1.83;92.46;100956.19;5017341;28;20033;-49
2021/12/30 01:26:31;;;;;;;88.28;20.17;;;;;;;1.85;92.63;100952.34;5016624;28;20022;-48
2021/12/30 01:28:57;;;;;;;71.70;17.13;;;;;;;1.83;92.17;100951.72;5014704;28;20033;-51
2021/12/30 01:31:23;;;;;;;38.92;14.38;;;;;;;1.85;91.93;100955.00;5005120;28;20789;-49
2021/12/30 01:33:48;;;;;;;54.75;15.45;;;;;;;1.87;92.11;100947.69;5011847;28;20057;-50
2021/12/30 01:36:15;;;;;;;109.10;20.65;;;;;;;1.91;92.34;100942.84;5015351;28;20026;-51
2021/12/30 01:38:40;;;;;;;46.55;13.57;;;;;;;1.91;91.82;100943.66;5017161;28;20040;-49
2021/12/30 01:41:08;;;;;;;37.80;12.05;;;;;;;1.92;91.53;100947.94;5013378;28;20030;-49
2021/12/30 01:43:35;;;;;;;49.88;14.80;;;;;;;1.97;91.30;100919.13;5016295;28;20069;-49
2021/12/30 01:46:02;;;;;;;60.00;15.75;;;;;;;1.99;91.10;100916.34;5013413;28;20324;-49
2021/12/30 01:48:28;;;;;;;42.85;16.33;;;;;;;2.00;91.56;100915.31;5011469;28;20061;-49
2021/12/30 01:50:54;;;;;;;41.15;12.07;;;;;;;2.02;92.01;100914.13;5013828;28;20449;-49
2021/12/30 01:53:19;;;;;;;43.90;13.52;;;;;;;2.04;91.62;100908.66;5012907;28;20199;-49
2021/12/30 01:55:46;;;;;;;41.38;13.93;;;;;;;2.03;91.67;100914.94;5013479;28;20030;-48
2021/12/30 01:58:13;;;;;;;49.75;13.05;;;;;;;2.02;92.30;100921.25;5012388;28;20075;-49
2021/12/30 02:00:41;;;;;;;36.22;11.93;;;;;;;2.02;92.21;100931.81;5012657;28;20556;-51
2021/12/30 02:03:09;;;;;;;32.92;12.70;;;;;;;2.05;92.08;100928.78;5016203;28;20025;-49
2021/12/30 02:05:37;;;;;;;29.85;10.90;;;;;;;2.02;92.23;100919.41;5015099;28;20378;-48
2021/12/30 02:08:03;;;;;;;35.25;12.30;;;;;;;2.03;91.91;100917.59;5020272;28;20017;-50
2021/12/30 02:10:28;;;;;;;35.42;12.02;;;;;;;2.03;91.82;100918.41;5018570;28;20397;-51
2021/12/30 02:12:54;;;;;;;44.05;12.98;;;;;;;2.04;92.08;100913.94;5012981;28;20030;-49
2021/12/30 02:15:20;;;;;;;33.10;11.23;;;;;;;2.06;91.99;100919.84;5014648;28;20145;-49
2021/12/30 02:17:48;;;;;;;37.30;11.07;;;;;;;2.06;92.90;100923.31;5008961;28;20525;-50
2021/12/30 02:20:41;;;;;;;42.20;12.60;;;;;;;2.09;92.67;100927.41;5014229;28;20029;-49
2021/12/30 02:23:07;;;;;;;72.10;17.65;;;;;;;2.13;93.22;100926.81;5013563;28;20481;-48
2021/12/30 02:25:33;;;;;;;41.13;12.57;;;;;;;2.15;92.92;100912.59;5017681;28;20033;-49
2021/12/30 02:27:58;;;;;;;59.88;14.68;;;;;;;2.14;92.36;100909.13;5012838;28;20029;-49
2021/12/30 02:30:24;;;;;;;58.83;13.93;;;;;;;2.12;92.20;100906.69;5014194;28;20030;-49
2021/12/30 02:32:49;;;;;;;41.47;12.15;;;;;;;2.10;93.00;100905.25;5015763;28;20033;-50
2021/12/30 02:35:15;;;;;;;52.67;13.23;;;;;;;2.10;92.76;100899.97;5016860;28;20021;-49
2021/12/30 02:37:41;;;;;;;71.00;15.50;;;;;;;2.11;92.58;100907.69;5012152;28;20116;-49
2021/12/30 02:40:07;;;;;;;37.40;11.95;;;;;;;2.11;93.57;100912.97;5015289;28;20485;-49
2021/12/30 02:42:33;;;;;;;75.70;13.43;;;;;;;2.12;93.25;100917.25;5016200;28;20029;-49
2021/12/30 02:44:58;;;;;;;81.03;15.05;;;;;;;2.13;93.39;100916.25;5015554;28;20404;-49
2021/12/30 02:47:24;;;;;;;80.57;13.77;;;;;;;2.15;93.81;100920.53;5012150;28;20721;-49
2021/12/30 02:49:49;;;;;;;132.48;19.38;;;;;;;2.20;93.63;100915.50;5016659;28;20025;-52
2021/12/30 02:52:15;;;;;;;112.72;16.10;;;;;;;2.19;93.74;100914.69;5012433;28;20029;-50
2021/12/30 02:54:42;;;;;;;99.05;16.00;;;;;;;2.18;94.13;100917.53;5017366;28;20029;-49
2021/12/30 02:57:09;;;;;;;82.05;14.75;;;;;;;2.17;94.15;100911.44;5017642;28;20096;-52
2021/12/30 02:59:36;;;;;;;54.20;13.82;;;;;;;2.16;94.43;100901.88;5014302;28;20033;-49
2021/12/30 03:02:02;;;;;;;68.53;15.45;;;;;;;2.11;94.31;100885.72;5011938;28;20625;-50
2021/12/30 03:04:29;;;;;;;51.63;11.38;;;;;;;2.10;94.25;100879.63;5013741;28;20409;-50
2021/12/30 03:06:55;;;;;;;29.95;10.82;;;;;;;2.10;94.65;100887.56;5013789;28;20033;-51
2021/12/30 03:09:21;;;;;;;43.97;10.63;;;;;;;2.11;94.96;100886.56;5019776;28;20144;-50
2021/12/30 03:11:47;;;;;;;112.18;16.30;;;;;;;2.18;95.16;100881.34;5017500;28;20112;-49
2021/12/30 03:14:12;;;;;;;104.13;14.82;;;;;;;2.18;95.58;100891.91;5015945;28;20224;-50
2021/12/30 03:16:41;;;;;;;51.58;10.55;;;;;;;2.17;95.49;100897.41;5012898;28;20151;-49
2021/12/30 03:19:06;;;;;;;80.18;13.07;;;;;;;2.16;96.55;100898.41;5013865;28;20364;-49
2021/12/30 03:21:33;;;;;;;91.93;13.00;;;;;;;2.11;96.55;100902.41;5015650;28;20020;-49
2021/12/30 03:24:03;;;;;;;110.15;14.60;;;;;;;2.11;96.83;100910.34;5011654;28;20146;-49
2021/12/30 03:26:31;;;;;;;60.03;10.07;;;;;;;2.07;97.18;100909.09;5015851;28;20040;-49
2021/12/30 03:28:57;;;;;;;111.63;14.60;;;;;;;2.11;97.24;100907.69;5013723;28;21056;-50
2021/12/30 03:31:22;;;;;;;43.50;10.10;;;;;;;2.10;97.14;100911.34;5011912;28;20316;-49
2021/12/30 03:33:49;;;;;;;40.47;9.55;;;;;;;2.08;96.88;100902.78;5011672;28;20049;-52
2021/12/30 03:36:16;;;;;;;28.75;8.80;;;;;;;2.10;96.92;100918.47;5015073;28;20109;-50
2021/12/30 03:38:44;;;;;;;90.03;16.70;;;;;;;2.08;97.01;100921.28;5012506;28;20557;-50
2021/12/30 03:41:12;;;;;;;23.35;8.05;;;;;;;2.07;97.16;100932.88;5011837;28;20032;-50
2021/12/30 03:43:38;;;;;;;23.65;6.63;;;;;;;2.07;97.01;100932.06;5013093;28;20030;-49
2021/12/30 03:46:06;;;;;;;25.23;8.23;;;;;;;2.07;96.67;100935.50;5010950;28;20090;-52
2021/12/30 03:48:34;;;;;;;26.90;7.45;;;;;;;2.08;96.89;100937.16;5010714;28;20033;-50
2021/12/30 03:51:08;;;;;;;31.80;7.43;;;;;;;2.12;96.75;100929.66;5013294;28;20117;-51
2021/12/30 03:53:38;;;;;;;21.48;7.38;;;;;;;2.13;97.05;100941.88;5014903;28;20282;-49
2021/12/30 03:56:11;;;;;;;15.20;6.18;;;;;;;2.13;96.69;100942.69;5015175;28;20030;-52
2021/12/30 03:58:39;;;;;;;15.57;6.18;;;;;;;2.15;96.73;100934.56;5012437;28;20480;-51
2021/12/30 04:01:06;;;;;;;18.33;6.13;;;;;;;2.16;96.63;100927.47;5013713;28;20022;-51
2021/12/30 04:03:32;;;;;;;19.02;7.55;;;;;;;2.16;96.43;100928.31;5011666;28;20037;-50
2021/12/30 04:05:57;;;;;;;14.23;5.97;;;;;;;2.16;96.55;100935.41;5011372;28;20030;-50
2021/12/30 04:08:23;;;;;;;17.52;6.70;;;;;;;2.17;96.75;100943.16;5010346;28;20397;-49
2021/12/30 04:10:49;;;;;;;18.35;7.57;;;;;;;2.18;96.59;100938.69;5012701;28;20029;-52
2021/12/30 04:13:14;;;;;;;19.35;6.60;;;;;;;2.18;96.33;100949.25;5010635;28;20028;-50
2021/12/30 04:15:40;;;;;;;19.92;6.57;;;;;;;2.20;96.67;100957.81;5012340;28;20554;-49
2021/12/30 04:18:06;;;;;;;29.83;7.43;;;;;;;2.21;96.73;100965.56;5010905;28;20421;-52
2021/12/30 04:20:31;;;;;;;18.02;6.57;;;;;;;2.20;96.44;100958.63;5011954;28;20022;-50
2021/12/30 04:22:57;;;;;;;15.75;6.60;;;;;;;2.21;95.91;100964.75;5015171;28;20034;-50
2021/12/30 04:25:22;;;;;;;17.63;6.35;;;;;;;2.21;96.23;100957.63;4999233;28;20080;-51
2021/12/30 04:27:48;;;;;;;14.30;5.63;;;;;;;2.24;96.25;100959.06;5009036;28;20033;-50
2021/12/30 04:30:16;;;;;;;14.52;6.43;;;;;;;2.23;95.84;100978.59;5015301;28;20045;-52
2021/12/30 04:32:42;;;;;;;23.27;6.88;;;;;;;2.25;96.16;100968.63;5013381;28;20022;-51
2021/12/30 04:35:08;;;;;;;23.50;7.25;;;;;;;2.26;96.39;100968.44;4999440;28;20033;-51
2021/12/30 04:37:34;;;;;;;37.33;8.40;;;;;;;2.25;95.94;100966.81;5011854;28;20030;-50
2021/12/30 04:40:01;;;;;;;14.95;6.22;;;;;;;2.25;96.15;100971.28;5012464;28;20029;-51
2021/12/30 04:42:27;;;;;;;40.08;9.13;;;;;;;2.27;96.14;100971.91;5014676;28;20082;-50
2021/12/30 04:44:53;;;;;;;37.38;8.00;;;;;;;2.26;95.94;100976.38;5017971;28;20466;-49
2021/12/30 04:47:20;;;;;;;15.82;6.65;;;;;;;2.25;96.22;100972.09;5014302;28;20424;-50
2021/12/30 04:49:45;;;;;;;15.40;6.22;;;;;;;2.25;95.87;100971.28;5016486;28;20025;-51
2021/12/30 04:52:11;;;;;;;12.57;4.95;;;;;;;2.25;96.01;100976.56;5017730;28;20084;-52
2021/12/30 04:54:36;;;;;;;15.68;6.10;;;;;;;2.25;96.23;100971.28;5014216;28;20280;-52
2021/12/30 04:57:02;;;;;;;16.33;6.53;;;;;;;2.27;96.02;100964.78;5014421;28;20057;-49
2021/12/30 04:59:27;;;;;;;26.65;6.43;;;;;;;2.27;95.59;100956.84;5012221;28;20037;-51
2021/12/30 05:01:53;;;;;;;35.22;9.45;;;;;;;2.25;96.20;100963.34;5015224;28;20026;-49
2021/12/30 05:04:18;;;;;;;84.80;13.90;;;;;;;2.30;96.34;100956.47;5013543;28;20044;-50
2021/12/30 05:06:44;;;;;;;18.73;6.78;;;;;;;2.27;96.02;100956.03;5015559;28;20121;-49
2021/12/30 05:09:10;;;;;;;23.83;8.35;;;;;;;2.27;96.00;100956.03;5001388;28;20584;-50
2021/12/30 05:11:40;;;;;;;21.65;6.88;;;;;;;2.26;96.48;100972.91;5015893;28;20065;-50
2021/12/30 05:14:06;;;;;;;24.25;7.22;;;;;;;2.29;95.78;100977.81;5013403;28;20485;-49
2021/12/30 05:16:32;;;;;;;20.92;8.68;;;;;;;2.29;95.71;100969.88;5016744;28;20041;-49
2021/12/30 05:18:58;;;;;;;19.30;6.72;;;;;;;2.29;95.26;100970.72;5014726;28;20036;-51
2021/12/30 05:21:24;;;;;;;65.35;12.18;;;;;;;2.32;96.56;100972.16;5015727;28;20095;-49
2021/12/30 05:23:50;;;;;;;72.47;12.77;;;;;;;2.37;96.19;100972.44;5013417;28;20036;-51
2021/12/30 05:26:16;;;;;;;19.75;7.28;;;;;;;2.37;96.51;100980.34;5011561;28;20033;-49
2021/12/30 05:28:42;;;;;;;96.97;14.57;;;;;;;2.36;96.24;100974.25;5018345;28;20466;-49
2021/12/30 05:31:08;;;;;;;86.40;15.00;;;;;;;2.39;95.96;100987.09;5000107;28;20129;-50
2021/12/30 05:33:33;;;;;;;34.67;11.18;;;;;;;2.40;95.78;100998.50;5015552;28;20116;-49
2021/12/30 05:35:59;;;;;;;61.58;11.50;;;;;;;2.39;95.97;100997.66;5015795;28;20036;-49
2021/12/30 05:38:24;;;;;;;64.72;11.45;;;;;;;2.39;95.87;100994.22;5016512;28;20025;-49
2021/12/30 05:40:50;;;;;;;23.40;9.45;;;;;;;2.40;96.27;101006.41;5013018;28;20025;-50
2021/12/30 05:43:15;;;;;;;31.02;9.57;;;;;;;2.39;95.85;101004.78;5017193;28;20041;-49
2021/12/30 05:45:41;;;;;;;35.55;10.20;;;;;;;2.43;95.58;101021.91;5019756;28;20036;-50
2021/12/30 05:48:06;;;;;;;40.58;11.57;;;;;;;2.44;95.33;101012.97;5016793;28;20308;-50
2021/12/30 05:50:33;;;;;;;31.60;9.13;;;;;;;2.46;95.70;101013.59;5014277;28;20375;-49
2021/12/30 05:52:58;;;;;;;70.35;13.95;;;;;;;2.48;95.66;101013.41;5014627;28;20165;-49
2021/12/30 05:55:24;;;;;;;84.97;16.13;;;;;;;2.51;95.60;101013.03;5012912;28;20097;-50
2021/12/30 05:57:52;;;;;;;31.67;10.52;;;;;;;2.51;95.64;101020.94;5014532;28;20473;-50
2021/12/30 06:00:19;;;;;;;40.42;10.90;;;;;;;2.54;95.58;101018.78;5015810;28;20118;-50
2021/12/30 06:02:46;;;;;;;114.10;17.13;;;;;;;2.56;95.55;101005.34;5018078;28;20025;-49
2021/12/30 06:05:12;;;;;;;32.72;12.55;;;;;;;2.56;95.47;101010.66;5014656;28;20025;-50
2021/12/30 06:07:37;;;;;;;67.07;16.45;;;;;;;2.58;95.37;101003.34;5012423;28;20037;-52
2021/12/30 06:10:04;;;;;;;163.90;20.55;;;;;;;2.63;95.94;101008.88;5015688;28;20501;-51
2021/12/30 06:12:30;;;;;;;36.85;12.73;;;;;;;2.66;95.50;101016.44;5012615;28;20105;-50
2021/12/30 06:14:55;;;;;;;39.65;11.90;;;;;;;2.63;95.09;101030.84;5013532;28;20503;-50
2021/12/30 06:17:21;;;;;;;48.33;12.38;;;;;;;2.62;95.58;101031.03;5016442;28;20032;-49
2021/12/30 06:19:46;;;;;;;43.97;13.13;;;;;;;2.64;95.59;101035.13;5016830;28;20228;-51
2021/12/30 06:22:13;;;;;;;48.35;13.82;;;;;;;2.69;96.04;101040.69;5017235;28;20079;-51
2021/12/30 06:24:39;;;;;;;43.78;12.48;;;;;;;2.70;95.76;101034.41;5004212;28;20044;-51
2021/12/30 06:27:05;;;;;;;51.13;13.82;;;;;;;2.70;95.27;101042.34;5016500;28;20482;-49
2021/12/30 06:29:31;;;;;;;46.35;12.52;;;;;;;2.71;95.63;101038.69;5014280;28;20022;-49
2021/12/30 06:31:57;;;;;;;49.35;13.60;;;;;;;2.73;95.56;101049.88;5012699;28;20116;-50
2021/12/30 06:34:22;;;;;;;47.65;13.60;;;;;;;2.73;95.78;101047.25;5012857;28;20022;-49
2021/12/30 06:36:48;;;;;;;58.78;14.95;;;;;;;2.73;95.48;101044.59;5002121;28;20032;-50
2021/12/30 06:39:14;;;;;;;59.25;14.95;;;;;;;2.76;95.86;101040.75;5012910;28;20141;-51
2021/12/30 06:41:40;;;;;;;39.88;11.20;;;;;;;2.77;95.82;101046.88;5015352;28;20017;-49
2021/12/30 06:44:05;;;;;;;52.83;13.55;;;;;;;2.78;96.28;101045.84;5001675;28;20482;-50
2021/12/30 06:46:31;;;;;;;56.40;16.45;;;;;;;2.82;95.92;101058.50;5001674;28;20029;-50
2021/12/30 06:48:57;;;;;;;97.72;17.48;;;;;;;2.85;96.26;101054.66;5013952;28;20033;-51
2021/12/30 06:51:24;;;;;;;52.10;14.88;;;;;;;2.88;96.17;101051.66;5010924;28;20434;-49
2021/12/30 06:53:54;;;;;;;56.55;13.77;;;;;;;2.89;95.97;101058.59;5010363;28;20400;-50
2021/12/30 06:56:21;;;;;;;102.28;18.00;;;;;;;2.90;96.05;101054.94;4994838;28;20104;-50
2021/12/30 06:58:46;;;;;;;68.47;15.40;;;;;;;2.95;96.00;101063.13;5012720;28;20068;-50
2021/12/30 07:01:12;;;;;;;59.33;15.68;;;;;;;2.94;97.30;101062.28;4994023;28;20112;-49
2021/12/30 07:03:37;;;;;;;56.22;13.18;;;;;;;2.93;96.20;101076.53;5010757;28;20114;-49
2021/12/30 07:06:03;;;;;;;47.45;13.18;;;;;;;2.96;97.66;101077.97;5001072;28;20025;-49
2021/12/30 07:08:29;;;;;;;61.97;14.43;;;;;;;2.98;96.79;101083.91;5014435;28;20377;-50
2021/12/30 07:10:54;;;;;;;63.28;15.48;;;;;;;3.02;97.05;101085.16;5011773;28;20033;-49
2021/12/30 07:13:20;;;;;;;64.70;16.67;;;;;;;3.08;99.07;101089.72;5013277;28;20071;-49
2021/12/30 07:15:45;;;;;;;54.10;15.23;;;;;;;3.16;99.11;101094.03;5014056;28;20041;-49
2021/12/30 07:18:11;;;;;;;44.35;13.40;;;;;;;3.22;98.11;101096.72;5012856;28;20025;-50
2021/12/30 07:20:36;;;;;;;57.17;14.75;;;;;;;3.24;97.32;101101.88;5016281;28;20025;-50
2021/12/30 07:23:02;;;;;;;61.47;14.65;;;;;;;3.24;97.41;101110.63;5012061;28;20465;-49
2021/12/30 07:25:28;;;;;;;67.43;16.48;;;;;;;3.27;97.35;101112.06;5015672;28;20486;-49
2021/12/30 07:27:54;;;;;;;191.75;30.05;;;;;;;3.29;97.87;101113.50;5018324;28;20481;-49
2021/12/30 07:30:23;;;;;;;96.68;20.75;;;;;;;3.32;97.48;101096.41;5010867;28;20025;-51
2021/12/30 07:32:49;;;;;;;120.65;21.33;;;;;;;3.37;97.03;101095.84;5012268;28;20037;-50
2021/12/30 07:35:17;;;;;;;73.75;17.70;;;;;;;3.32;97.78;101091.94;5015131;28;21142;-49
2021/12/30 07:37:43;;;;;;;94.15;19.48;;;;;;;3.38;97.96;101087.69;5013170;28;20159;-50
2021/12/30 07:40:09;;;;;;;70.93;19.13;;;;;;;3.38;97.62;101085.03;5014356;28;20552;-50
2021/12/30 07:42:34;;;;;;;73.43;19.88;;;;;;;3.40;97.71;101080.38;5009006;28;20025;-49
2021/12/30 07:45:00;;;;;;;53.15;16.67;;;;;;;3.39;97.45;101091.16;5015835;28;20051;-49
2021/12/30 07:47:26;;;;;;;59.03;15.68;;;;;;;3.42;99.08;101096.09;5014379;28;20035;-50
2021/12/30 07:49:51;;;;;;;70.90;18.60;;;;;;;3.46;98.48;101090.22;5012848;28;20038;-49
2021/12/30 07:52:17;;;;;;;61.55;17.02;;;;;;;3.47;97.83;101083.09;5010056;28;20088;-52
2021/12/30 07:54:44;;;;;;;58.20;16.35;;;;;;;3.54;100.00;101087.41;5012820;28;20041;-49
2021/12/30 07:57:22;;;;;;;75.45;20.77;;;;;;;3.58;98.98;101085.19;5014316;28;20026;-50
2021/12/30 07:59:52;;;;;;;70.93;20.33;;;;;;;3.66;100.00;101097.47;5017261;28;20041;-50
2021/12/30 08:02:19;;;;;;;82.53;22.95;;;;;;;3.74;100.00;101100.78;5011108;28;20116;-49
2021/12/30 08:04:45;;;;;;;102.05;25.10;;;;;;;3.76;99.56;101096.09;5015555;28;20520;-49
2021/12/30 08:07:10;;;;;;;88.10;23.58;;;;;;;3.77;98.34;101087.16;5009908;28;20038;-50
2021/12/30 08:09:36;;;;;;;90.15;22.73;;;;;;;3.81;100.00;101104.31;5013961;28;20056;-49
2021/12/30 08:12:02;;;;;;;71.97;21.23;;;;;;;3.90;100.00;101099.66;5009201;28;20117;-50
2021/12/30 08:14:27;;;;;;;67.85;19.30;;;;;;;4.04;100.00;101095.25;5016184;28;20056;-49
2021/12/30 08:16:53;;;;;;;73.68;20.35;;;;;;;4.08;100.00;101107.09;5013500;28;20028;-50
2021/12/30 08:19:19;;;;;;;73.95;19.63;;;;;;;4.18;100.00;101105.72;5011453;28;20041;-50
2021/12/30 08:21:44;;;;;;;83.78;19.85;;;;;;;4.25;100.00;101114.50;5008305;28;20108;-50
2021/12/30 08:24:10;;;;;;;63.33;19.23;;;;;;;4.29;100.00;101114.94;5020699;28;20034;-49
2021/12/30 08:26:37;;;;;;;75.63;19.80;;;;;;;4.35;100.00;101113.34;5013555;28;20124;-49
2021/12/30 08:29:03;;;;;;;74.85;20.63;;;;;;;4.41;100.00;101133.78;5016753;28;20037;-50
2021/12/30 08:31:29;;;;;;;82.75;19.48;;;;;;;4.46;100.00;101131.31;5011585;28;20041;-49
2021/12/30 08:33:54;;;;;;;80.70;21.95;;;;;;;4.46;99.19;101145.41;5010511;28;20030;-49
2021/12/30 08:36:20;;;;;;;77.63;19.50;;;;;;;4.50;100.00;101145.88;5012449;28;20026;-49
2021/12/30 08:38:46;;;;;;;77.70;21.52;;;;;;;4.58;100.00;101150.16;5010796;28;20021;-50
2021/12/30 08:41:11;;;;;;;65.35;21.02;;;;;;;4.58;100.00;101150.16;5013064;28;20056;-49
2021/12/30 08:43:36;;;;;;;72.32;20.52;;;;;;;4.63;100.00;101158.34;5009930;28;20498;-51
2021/12/30 08:46:02;;;;;;;78.10;22.08;;;;;;;4.69;100.00;101161.03;5012737;28;20029;-50
2021/12/30 08:48:28;;;;;;;67.93;19.80;;;;;;;4.76;100.00;101153.91;5012124;28;20685;-50
2021/12/30 08:50:54;;;;;;;78.70;19.33;;;;;;;4.73;100.00;101164.91;5010148;28;20544;-50
2021/12/30 08:53:22;;;;;;;75.55;21.60;;;;;;;4.79;100.00;101165.94;5008855;28;20076;-50
2021/12/30 08:55:47;;;;;;;77.53;20.48;;;;;;;4.82;100.00;101158.41;5013342;28;20025;-50
2021/12/30 08:58:12;;;;;;;73.05;20.15;;;;;;;4.86;100.00;101158.84;5013437;28;20099;-49
2021/12/30 09:00:41;;;;;;;69.35;21.73;;;;;;;4.82;100.00;101155.75;5016089;28;20029;-51
2021/12/30 09:03:07;;;;;;;77.28;21.27;;;;;;;4.91;100.00;101163.53;5016572;28;20531;-50
2021/12/30 09:05:34;;;;;;;78.53;21.00;;;;;;;4.91;100.00;101160.88;5012251;28;20050;-49
2021/12/30 09:08:00;;;;;;;75.50;21.20;;;;;;;4.94;100.00;101171.91;5008408;28;20030;-50
2021/12/30 09:10:26;;;;;;;70.05;20.52;;;;;;;4.96;100.00;101169.06;5009826;28;20034;-50
2021/12/30 09:12:53;;;;;;;71.85;21.05;;;;;;;4.98;100.00;101162.53;5010937;28;20032;-49
2021/12/30 09:15:22;;;;;;;76.25;20.30;;;;;;;5.11;100.00;101154.59;5012281;28;20080;-49
2021/12/30 09:17:48;;;;;;;72.93;20.98;;;;;;;5.20;100.00;101163.16;5013897;28;20252;-50
2021/12/30 09:20:15;;;;;;;77.32;21.58;;;;;;;5.18;100.00;101167.88;5010686;28;20567;-49
2021/12/30 09:22:41;;;;;;;94.15;20.88;;;;;;;5.26;100.00;101174.84;5010655;28;20033;-49
2021/12/30 09:25:09;;;;;;;68.18;21.55;;;;;;;5.27;100.00;101176.47;5009959;28;20032;-49
2021/12/30 09:27:36;;;;;;;101.50;23.63;;;;;;;5.29;100.00;101177.91;5015596;28;20029;-49
2021/12/30 09:30:04;;;;;;;70.95;21.20;;;;;;;5.29;100.00;101179.75;5014594;28;20076;-50
2021/12/30 09:32:30;;;;;;;64.15;20.90;;;;;;;5.30;99.91;101181.38;5015296;28;20033;-51
2021/12/30 09:34:55;;;;;;;86.38;20.67;;;;;;;5.32;99.95;101174.03;5020313;28;20036;-49
2021/12/30 09:37:21;;;;;;;70.40;19.20;;;;;;;5.35;100.00;101168.31;5018991;28;20029;-50
2021/12/30 09:39:46;;;;;;;73.72;20.20;;;;;;;5.34;100.00;101170.16;5017156;28;20389;-49
2021/12/30 09:42:14;;;;;;;70.47;19.67;;;;;;;5.33;100.00;101163.19;5016416;28;20226;-51
2021/12/30 09:44:40;;;;;;;60.97;18.73;;;;;;;5.36;99.72;101170.75;5013954;28;20546;-50
2021/12/30 09:47:05;;;;;;;65.82;20.10;;;;;;;5.38;99.91;101187.31;5021806;28;20037;-50
2021/12/30 09:49:31;;;;;;;68.55;19.65;;;;;;;5.42;100.00;101180.59;5016520;28;20025;-51
2021/12/30 09:51:57;;;;;;;69.38;20.13;;;;;;;5.47;100.00;101177.31;5014972;28;20033;-48
2021/12/30 09:54:23;;;;;;;62.22;18.70;;;;;;;5.50;100.00;101176.91;5016699;28;20120;-48
2021/12/30 09:56:49;;;;;;;53.28;17.92;;;;;;;5.54;99.88;101191.41;5018279;28;20717;-50
2021/12/30 09:59:15;;;;;;;50.70;17.63;;;;;;;5.56;100.00;101197.34;5018950;28;20527;-49
2021/12/30 10:01:42;;;;;;;52.50;18.33;;;;;;;5.58;99.61;101192.66;5014265;28;20032;-49
2021/12/30 10:04:09;;;;;;;49.53;17.42;;;;;;;5.60;99.80;101198.59;5018155;28;20025;-49
2021/12/30 10:06:49;;;;;;;61.30;17.73;;;;;;;5.64;99.63;101181.22;5018528;28;20522;-50
2021/12/30 10:09:16;;;;;;;60.88;17.70;;;;;;;5.69;100.00;101192.03;5017972;28;20556;-50
2021/12/30 10:11:50;;;;;;;53.42;16.38;;;;;;;5.74;100.00;101189.59;5016481;28;20300;-49
2021/12/30 10:14:32;;;;;;;57.33;17.02;;;;;;;5.81;100.00;101184.28;5017055;28;21166;-50
2021/12/30 10:17:20;;;;;;;54.20;17.63;;;;;;;5.86;99.82;101186.31;5011437;28;20214;-50
2021/12/30 10:19:47;;;;;;;56.70;16.70;;;;;;;5.86;99.63;101186.31;5011409;28;20030;-49
2021/12/30 10:22:15;;;;;;;46.17;16.48;;;;;;;5.85;99.64;101185.47;5011978;28;20026;-50
2021/12/30 10:24:41;;;;;;;53.03;16.60;;;;;;;5.82;99.64;101183.25;5009596;28;20117;-49
2021/12/30 10:27:07;;;;;;;47.88;15.95;;;;;;;5.81;99.19;101186.09;5015525;28;20033;-50
2021/12/30 10:29:59;;;;;;;52.30;16.63;;;;;;;5.78;99.18;101183.88;5013933;28;20075;-50
2021/12/30 10:32:28;;;;;;;58.15;17.90;;;;;;;5.78;99.23;101183.88;5006310;28;20045;-48
2021/12/30 10:35:06;;;;;;;55.17;17.10;;;;;;;5.73;99.11;101179.97;5013729;28;20561;-50
2021/12/30 10:37:33;;;;;;;53.53;17.33;;;;;;;5.74;99.43;101175.47;5009885;28;20413;-48
2021/12/30 10:40:00;;;;;;;59.92;17.50;;;;;;;5.75;99.71;101174.47;5015084;28;20071;-49
2021/12/30 10:42:30;;;;;;;56.65;16.45;;;;;;;5.79;99.99;101177.53;5011811;28;20466;-50
2021/12/30 10:45:04;;;;;;;47.15;15.15;;;;;;;5.82;99.89;101169.13;5015728;28;20059;-50
2021/12/30 10:47:32;;;;;;;53.17;16.90;;;;;;;5.80;99.70;101176.50;5013793;28;20034;-49
2021/12/30 10:50:08;;;;;;;50.00;16.65;;;;;;;5.79;99.75;101172.22;5015281;28;20037;-50
2021/12/30 10:52:44;;;;;;;49.33;15.55;;;;;;;5.83;99.90;101157.47;5009934;28;20063;-49
2021/12/30 10:55:13;;;;;;;70.00;18.00;;;;;;;5.86;99.88;101151.72;5019229;28;20103;-51
2021/12/30 10:57:38;;;;;;;51.53;17.15;;;;;;;5.85;99.87;101152.75;5016692;28;20188;-52
2021/12/30 11:00:08;;;;;;;53.50;16.92;;;;;;;5.84;99.86;101159.91;5012420;28;20482;-49
2021/12/30 11:02:33;;;;;;;48.95;16.60;;;;;;;5.85;100.00;101166.06;5013521;28;20025;-49
2021/12/30 11:05:06;;;;;;;49.67;16.00;;;;;;;5.86;99.75;101171.16;5007158;28;20409;-50
2021/12/30 11:07:52;;;;;;;61.92;16.98;;;;;;;5.82;100.00;101169.94;5011135;28;20370;-49
2021/12/30 11:10:38;;;;;;;66.35;17.45;;;;;;;5.87;100.00;101171.97;4999029;28;21448;-48
2021/12/30 11:13:12;;;;;;;60.35;18.98;;;;;;;5.92;100.00;101170.34;5017880;28;20121;-49
2021/12/30 11:15:39;;;;;;;66.15;17.77;;;;;;;5.95;99.93;101175.28;5017821;28;21371;-49